createdAt,value
2019-01-20T00:02:58.699Z,65.10
2019-01-20T00:07:16.781Z,65.20
2019-01-20T00:11:34.917Z,65.30
2019-01-20T00:15:53.557Z,65.50
2019-01-20T00:20:11.915Z,65.20
2019-01-20T00:24:30.029Z,65.10
2019-01-20T00:28:48.628Z,65.20
2019-01-20T00:33:06.832Z,65.00
2019-01-20T00:37:25.022Z,65.10
2019-01-20T00:41:43.221Z,65.20
2019-01-20T00:46:01.276Z,65.20
2019-01-20T00:50:19.779Z,65.30
2019-01-20T00:54:38.197Z,65.30
2019-01-20T00:58:56.423Z,65.20
2019-01-20T01:03:15.037Z,66.10
2019-01-20T01:07:33.266Z,65.50
2019-01-20T01:11:51.459Z,65.60
2019-01-20T01:16:09.715Z,65.60
2019-01-20T01:20:27.985Z,65.50
2019-01-20T01:24:46.141Z,65.60
2019-01-20T01:29:04.725Z,65.50
2019-01-20T01:33:22.932Z,65.60
2019-01-20T01:37:41.138Z,65.60
2019-01-20T01:41:59.248Z,65.80
2019-01-20T01:46:17.751Z,66.00
2019-01-20T01:50:35.895Z,66.10
2019-01-20T01:54:54.702Z,66.00
2019-01-20T01:59:12.776Z,66.00
2019-01-20T02:03:32.468Z,66.00
2019-01-20T02:07:50.794Z,65.80
2019-01-20T02:12:08.959Z,65.60
2019-01-20T02:16:27.169Z,65.70
2019-01-20T02:20:45.832Z,65.50
2019-01-20T02:25:04.429Z,65.70
2019-01-20T02:29:22.650Z,65.60
2019-01-20T02:33:41.173Z,65.90
2019-01-20T02:37:59.341Z,65.90
2019-01-20T02:42:17.439Z,66.00
2019-01-20T02:46:35.774Z,65.90
2019-01-20T02:50:54.098Z,66.00
2019-01-20T02:55:12.563Z,65.90
2019-01-20T02:59:30.718Z,65.90
2019-01-20T03:03:50.261Z,65.70
2019-01-20T03:08:08.793Z,65.50
2019-01-20T03:12:26.894Z,65.40
2019-01-20T03:16:45.147Z,65.10
2019-01-20T03:21:03.659Z,65.00
2019-01-20T03:25:22.392Z,65.00
2019-01-20T03:29:41.656Z,65.00
2019-01-20T03:33:59.840Z,65.30
2019-01-20T03:38:18.051Z,65.50
2019-01-20T03:42:36.300Z,65.50
2019-01-20T03:46:54.517Z,65.60
2019-01-20T03:51:12.827Z,65.20
2019-01-20T03:55:31.014Z,65.50
2019-01-20T03:59:49.196Z,65.70
2019-01-20T04:04:07.374Z,65.60
2019-01-20T04:08:25.594Z,65.60
2019-01-20T04:12:43.746Z,65.50
2019-01-20T04:17:01.933Z,65.60
2019-01-20T04:21:20.081Z,65.70
2019-01-20T04:25:38.324Z,65.90
2019-01-20T04:29:56.470Z,66.00
2019-01-20T04:34:14.757Z,66.30
2019-01-20T04:38:33.363Z,66.50
2019-01-20T04:42:52.050Z,66.50
2019-01-20T04:47:10.182Z,66.70
2019-01-20T04:51:28.666Z,66.70
2019-01-20T04:55:47.234Z,66.90
2019-01-20T05:00:08.376Z,66.90
2019-01-20T05:04:26.416Z,67.10
2019-01-20T05:08:44.440Z,67.10
2019-01-20T05:13:02.904Z,67.20
2019-01-20T05:17:21.140Z,67.30
2019-01-20T05:21:39.229Z,67.30
2019-01-20T05:25:57.685Z,67.40
2019-01-20T05:30:22.481Z,67.60
2019-01-20T05:34:40.678Z,67.70
2019-01-20T05:39:00.445Z,67.70
2019-01-20T05:43:18.537Z,67.60
2019-01-20T05:47:37.042Z,67.80
2019-01-20T05:51:55.218Z,67.90
2019-01-20T05:56:13.398Z,67.90
2019-01-20T06:00:33.446Z,68.00
2019-01-20T06:04:51.467Z,68.10
2019-01-20T06:09:10.571Z,68.00
2019-01-20T06:13:28.751Z,67.90
2019-01-20T06:17:47.044Z,68.10
2019-01-20T06:22:05.330Z,68.10
2019-01-20T06:26:23.503Z,67.80
2019-01-20T06:30:41.697Z,67.80
2019-01-20T06:35:01.338Z,67.60
2019-01-20T06:39:21.022Z,67.60
2019-01-20T06:43:39.133Z,67.50
2019-01-20T06:47:57.732Z,67.60
2019-01-20T06:52:16.295Z,67.70
2019-01-20T06:56:34.917Z,67.40
2019-01-20T07:00:53.084Z,67.50
2019-01-20T07:05:11.700Z,67.80
2019-01-20T07:09:30.143Z,67.60
2019-01-20T07:13:48.842Z,67.80
2019-01-20T07:18:08.074Z,67.90
2019-01-20T07:22:26.284Z,68.10
2019-01-20T07:26:45.833Z,68.00
2019-01-20T07:31:04.289Z,68.00
2019-01-20T07:35:22.668Z,67.90
2019-01-20T07:39:40.970Z,68.00
2019-01-20T07:43:59.247Z,67.90
2019-01-20T07:48:17.608Z,68.00
2019-01-20T07:52:35.904Z,67.90
2019-01-20T07:56:54.138Z,67.80
2019-01-20T08:01:12.405Z,67.80
2019-01-20T08:05:30.686Z,67.90
2019-01-20T08:09:48.931Z,68.20
2019-01-20T08:14:07.358Z,68.50
2019-01-20T08:18:36.778Z,68.90
2019-01-20T08:22:54.832Z,69.00
2019-01-20T08:27:13.532Z,69.80
2019-01-20T08:31:31.813Z,70.40
2019-01-20T08:35:50.587Z,70.70
2019-01-20T08:40:13.344Z,71.00
2019-01-20T08:44:36.473Z,71.30
2019-01-20T08:48:54.668Z,71.40
2019-01-20T08:53:12.890Z,71.40
2019-01-20T08:57:31.288Z,71.40
2019-01-20T09:01:49.650Z,71.50
2019-01-20T09:06:08.361Z,71.40
2019-01-20T09:10:28.663Z,71.50
2019-01-20T09:14:46.982Z,71.50
2019-01-20T09:19:06.038Z,71.40
2019-01-20T09:23:24.333Z,72.20
2019-01-20T09:27:42.406Z,71.50
2019-01-20T09:32:01.826Z,71.60
2019-01-20T09:36:20.762Z,71.40
2019-01-20T09:40:39.426Z,71.20
2019-01-20T09:44:57.809Z,70.80
2019-01-20T09:49:17.533Z,70.30
2019-01-20T09:53:35.813Z,69.70
2019-01-20T09:57:54.923Z,69.70
2019-01-20T10:02:13.360Z,69.50
2019-01-20T10:06:32.023Z,69.80
2019-01-20T10:10:50.255Z,70.10
2019-01-20T10:15:10.482Z,70.10
2019-01-20T10:19:28.970Z,70.40
2019-01-20T10:23:47.399Z,70.10
2019-01-20T10:28:07.665Z,70.40
2019-01-20T10:32:25.964Z,70.50
2019-01-20T10:36:44.148Z,70.90
2019-01-20T10:41:02.741Z,71.50
2019-01-20T10:45:20.970Z,71.70
2019-01-20T10:49:40.123Z,71.50
2019-01-20T10:53:58.888Z,71.10
2019-01-20T10:58:17.175Z,70.70
2019-01-20T11:02:35.250Z,70.70
2019-01-20T11:06:53.746Z,70.70
2019-01-20T11:11:11.929Z,70.50
2019-01-20T11:15:30.060Z,70.30
2019-01-20T11:19:48.355Z,70.30
2019-01-20T11:24:06.865Z,70.40
2019-01-20T11:28:25.098Z,70.90
2019-01-20T11:32:43.687Z,71.00
2019-01-20T11:37:02.027Z,71.10
2019-01-20T11:41:20.190Z,71.40
2019-01-20T11:45:38.373Z,71.50
2019-01-20T11:49:56.890Z,71.70
2019-01-20T11:54:15.085Z,71.60
2019-01-20T11:58:33.236Z,71.50
2019-01-20T12:02:52.092Z,71.60
2019-01-20T12:07:10.259Z,71.90
2019-01-20T12:11:28.356Z,71.90
2019-01-20T12:15:46.978Z,71.80
2019-01-20T12:20:07.256Z,71.30
2019-01-20T12:24:25.844Z,71.00
2019-01-20T12:28:44.657Z,70.60
2019-01-20T12:33:04.704Z,70.60
2019-01-20T12:37:22.843Z,70.60
2019-01-20T12:41:41.335Z,70.60
2019-01-20T12:45:59.611Z,70.40
2019-01-20T12:50:23.652Z,70.60
2019-01-20T12:54:42.649Z,71.00
2019-01-20T12:59:00.848Z,71.40
2019-01-20T13:03:19.351Z,71.40
2019-01-20T13:07:37.459Z,71.30
2019-01-20T13:11:55.695Z,71.20
2019-01-20T13:16:13.871Z,71.40
2019-01-20T13:20:32.828Z,71.70
2019-01-20T13:24:50.927Z,71.30
2019-01-20T13:29:09.500Z,71.30
2019-01-20T13:33:27.705Z,70.90
2019-01-20T13:37:50.562Z,70.90
2019-01-20T13:42:08.680Z,71.00
2019-01-20T13:46:27.325Z,70.90
2019-01-20T13:50:45.629Z,70.70
2019-01-20T13:55:03.775Z,70.40
2019-01-20T13:59:22.102Z,70.50
2019-01-20T14:03:40.178Z,70.30
2019-01-20T14:07:58.380Z,70.30
2019-01-20T14:12:18.519Z,70.40
2019-01-20T14:16:36.693Z,70.20
2019-01-20T14:20:55.070Z,70.20
2019-01-20T14:25:15.565Z,70.00
2019-01-20T14:29:33.961Z,70.10
2019-01-20T14:33:52.327Z,69.70
2019-01-20T14:38:10.579Z,69.60
2019-01-20T14:42:28.738Z,69.80
2019-01-20T14:46:47.131Z,69.80
2019-01-20T14:51:05.434Z,69.50
2019-01-20T14:55:23.726Z,69.40
2019-01-20T14:59:41.917Z,69.50
2019-01-20T15:03:59.961Z,69.50
2019-01-20T15:08:18.306Z,69.50
2019-01-20T15:12:36.419Z,69.40
2019-01-20T15:16:54.670Z,69.50
2019-01-20T15:21:12.959Z,69.50
2019-01-20T15:25:31.197Z,69.60
2019-01-20T15:29:49.719Z,69.60
2019-01-20T15:34:07.878Z,69.50
2019-01-20T15:38:26.093Z,69.60
2019-01-20T15:42:44.854Z,69.60
2019-01-20T15:47:03.138Z,69.40
2019-01-20T15:51:21.323Z,69.40
2019-01-20T15:55:39.601Z,69.40
2019-01-20T15:59:59.348Z,69.40
2019-01-20T16:04:17.657Z,69.40
2019-01-20T16:08:35.906Z,69.50
2019-01-20T16:12:54.142Z,69.10
2019-01-20T16:17:12.632Z,69.40
2019-01-20T16:21:30.847Z,69.30
2019-01-20T16:25:48.999Z,69.30
2019-01-20T16:30:09.618Z,69.30
2019-01-20T16:34:27.704Z,69.50
2019-01-20T16:38:45.980Z,69.50
2019-01-20T16:43:04.022Z,69.40
2019-01-20T16:47:24.528Z,69.50
2019-01-20T16:51:45.617Z,69.50
2019-01-20T16:56:04.099Z,69.50
2019-01-20T17:00:28.443Z,69.50
2019-01-20T17:04:46.585Z,69.50
2019-01-20T17:09:07.849Z,69.60
2019-01-20T17:13:25.911Z,69.50
2019-01-20T17:17:44.567Z,69.60
2019-01-20T17:22:02.846Z,69.70
2019-01-20T17:26:20.958Z,69.60
2019-01-20T17:30:39.870Z,69.60
2019-01-20T17:34:58.072Z,69.80
2019-01-20T17:39:17.423Z,69.80
2019-01-20T17:43:35.559Z,69.80
2019-01-20T17:47:53.716Z,69.80
2019-01-20T17:52:11.985Z,69.80
2019-01-20T17:56:30.706Z,69.90
2019-01-20T18:00:58.849Z,70.90
2019-01-20T18:05:20.037Z,70.20
2019-01-20T18:09:38.374Z,70.00
2019-01-20T18:13:56.432Z,69.70
2019-01-20T18:18:15.080Z,69.60
2019-01-20T18:22:33.209Z,69.60
2019-01-20T18:26:51.355Z,69.60
2019-01-20T18:31:09.457Z,69.40
2019-01-20T18:35:28.667Z,69.40
2019-01-20T18:39:46.754Z,69.60
2019-01-20T18:44:05.406Z,69.60
2019-01-20T18:48:23.533Z,69.70
2019-01-20T18:52:41.941Z,69.80
2019-01-20T18:57:00.560Z,69.80
2019-01-20T19:01:18.710Z,69.80
2019-01-20T19:05:38.929Z,69.90
2019-01-20T19:09:57.231Z,69.90
2019-01-20T19:14:15.565Z,69.90
2019-01-20T19:18:34.184Z,69.70
2019-01-20T19:22:55.581Z,70.00
2019-01-20T19:27:13.694Z,69.90
2019-01-20T19:31:31.998Z,69.80
2019-01-20T19:35:50.569Z,69.80
2019-01-20T19:40:10.471Z,69.80
2019-01-20T19:44:28.550Z,69.80
2019-01-20T19:48:48.023Z,69.70
2019-01-20T19:53:06.687Z,69.90
2019-01-20T19:57:25.343Z,69.90
2019-01-20T20:01:43.810Z,69.80
2019-01-20T20:06:01.860Z,69.80
2019-01-20T20:10:22.956Z,69.80
2019-01-20T20:14:41.572Z,69.90
2019-01-20T20:19:00.057Z,70.00
2019-01-20T20:23:18.768Z,69.90
2019-01-20T20:27:37.630Z,69.90
2019-01-20T20:31:55.829Z,69.90
2019-01-20T20:36:14.761Z,69.90
2019-01-20T20:40:33.483Z,69.80
2019-01-20T20:44:51.674Z,70.00
2019-01-20T20:49:12.681Z,69.90
2019-01-20T20:53:30.861Z,69.80
2019-01-20T20:57:49.590Z,69.90
2019-01-20T21:02:07.885Z,69.90
2019-01-20T21:06:26.226Z,70.00
2019-01-20T21:10:46.433Z,70.10
2019-01-20T21:15:05.104Z,69.60
2019-01-20T21:19:23.579Z,69.90
2019-01-20T21:23:41.761Z,70.10
2019-01-20T21:28:00.258Z,70.00
2019-01-20T21:32:18.427Z,70.00
2019-01-20T21:36:37.013Z,70.00
2019-01-20T21:40:55.213Z,69.80
2019-01-20T21:45:14.865Z,69.90
2019-01-20T21:49:33.315Z,70.00
2019-01-20T21:53:51.918Z,69.90
2019-01-20T21:58:12.832Z,70.00
2019-01-20T22:02:30.059Z,69.90
2019-01-20T22:06:48.198Z,69.90
2019-01-20T22:11:06.463Z,70.00
2019-01-20T22:15:24.645Z,70.00
2019-01-20T22:19:43.292Z,70.00
2019-01-20T22:24:01.752Z,70.10
2019-01-20T22:28:19.930Z,70.00
2019-01-20T22:32:38.170Z,70.00
2019-01-20T22:36:56.438Z,70.00
2019-01-20T22:41:14.631Z,70.00
2019-01-20T22:45:32.844Z,70.30
2019-01-20T22:49:51.855Z,70.00
2019-01-20T22:54:10.008Z,70.10
2019-01-20T22:58:28.024Z,69.80
2019-01-20T23:02:46.180Z,70.00
2019-01-20T23:07:04.707Z,70.10
2019-01-20T23:11:22.947Z,70.10
2019-01-20T23:15:41.396Z,70.20
2019-01-20T23:19:59.935Z,70.00
2019-01-20T23:24:18.108Z,69.90
2019-01-20T23:28:36.412Z,69.90
2019-01-20T23:32:55.152Z,69.90
2019-01-20T23:37:13.298Z,69.80
2019-01-20T23:41:31.684Z,70.00
2019-01-20T23:45:50.249Z,69.90
2019-01-20T23:50:10.506Z,70.00
2019-01-20T23:54:29.078Z,70.60
2019-01-20T23:58:47.532Z,69.80
